KDHN/DHN METAR and TAF weather

Enter ICAO airport designator
Station Type Date Time Source
KDHN METAR 2018/07/21 21:53 UTC NOAA

KDHN 212153Z 23008KT 10SM OVC120 34/22 A2989 RMK AO2 SLP113 T03440217


Station Type Date Time Source
KDHN Decoded METAR 2018/07/21 21:53 UTC NOAA

DOTHAN AIRPORT, AL, United States (KDHN) 31-19N 085-27W 113M
Jul 21, 2018 - 05:53 PM EDT / 2018.07.21 2153 UTC
Wind: from the SW (230 degrees) at 9 MPH (8 KT):0
Visibility: 10 mile(s):0
Sky conditions: overcast
Temperature: 93.9 F (34.4 C)
Heat index: 100.8 F (38.2 C):1
Dew Point: 71.1 F (21.7 C)
Relative Humidity: 47%
Pressure (altimeter): 29.89 in. Hg (1012 hPa)
ob: KDHN 212153Z 23008KT 10SM OVC120 34/22 A2989 RMK AO2 SLP113 T03440217
cycle: 22

Station Type Date Time Source
KDHN TAF 2018/07/21 18:39 UTC NOAA

TAF KDHN 211737Z 2118/2218 29010KT P6SM SCT040 BKN050
FM212200 VRB03KT P6SM FEW050 SCT150


Example: see airport list